Terminal Aerodrome Forecast
Issued by NWS

Home | Current Version | Previous Version | Text Only | Print | Product List | Glossary On
Versions: 1 2 3 4 5 6 7 8 9 10 11 12 13 14 15 16
000
FTUS44 KTSA 020500
TAFXNA
TAF
KXNA 020537Z 0206/0306 02006KT P6SM BKN015
      TEMPO 0206/0210 5SM BR SCT015 BKN250
     FM021000 04005KT 4SM BR OVC008
     FM021600 13006KT 5SM BR OVC007=

USA.gov is the U.S. government's official web portal to all federal, state and local government web resources and services.